Time;durP1;ratioP1;P1;durP2;ratioP2;P2;SDS_P1;SDS_P2;PMS_P1;PMS_P2;Temp;Humidity;BMP_temperature;BMP_pressure;BME280_temperature;BME280_humidity;BME280_pressure;Samples;Min_cycle;Max_cycle;Signal;HPM_P1;HPM_P2
2022/05/09 00:02:15;;;;;;;20.40;11.18;;;359.00;2227.20;;;;;;4882495;29;20032;-83
2022/05/09 00:04:44;;;;;;;17.50;10.85;;;359.00;2201.60;;;;;;4900320;29;20041;-80
2022/05/09 00:07:10;;;;;;;16.40;9.43;;;358.90;2227.20;;;;;;4882810;29;20051;-84
2022/05/09 00:09:36;;;;;;;14.10;8.25;;;384.00;2227.20;;;;;;4882539;29;20479;-81
2022/05/09 00:12:02;;;;;;;14.27;8.35;;;358.90;2227.20;;;;;;4875562;29;20051;-82
2022/05/09 00:14:30;;;;;;;13.85;8.60;;;358.90;2252.80;;;;;;4863361;29;20437;-83
2022/05/09 00:16:56;;;;;;;14.80;8.38;;;358.90;2252.80;;;;;;4864296;29;20467;-81
2022/05/09 00:19:22;;;;;;;14.82;8.20;;;358.90;2252.80;;;;;;4864178;29;20040;-83
2022/05/09 00:21:51;;;;;;;14.15;8.00;;;358.90;2278.40;;;;;;4864200;29;20116;-83
2022/05/09 00:24:18;;;;;;;20.25;7.55;;;358.80;2278.40;;;;;;4863950;29;20101;-82
2022/05/09 00:26:49;;;;;;;16.02;7.88;;;359.00;2278.40;;;;;;4864018;29;20032;-82
2022/05/09 00:29:16;;;;;;;13.82;8.05;;;358.80;2304.00;;;;;;4863919;29;20025;-83
2022/05/09 00:31:45;;;;;;;16.02;7.45;;;358.90;2278.40;;;;;;4863954;29;20045;-85
2022/05/09 00:34:13;;;;;;;12.73;6.80;;;358.90;2304.00;;;;;;4864057;29;20029;-83
2022/05/09 00:36:39;;;;;;;12.75;7.10;;;358.90;2304.00;;;;;;4871313;29;20028;-82
2022/05/09 00:39:06;;;;;;;12.55;7.45;;;358.90;2329.60;;;;;;4882842;29;20028;-84
2022/05/09 00:41:34;;;;;;;12.32;7.20;;;358.90;2329.60;;;;;;4893600;29;20049;-81
2022/05/09 00:44:27;;;;;;;12.25;6.82;;;358.80;2329.60;;;;;;4916614;29;20025;-81
2022/05/09 00:46:55;;;;;;;;;;;358.60;2329.60;;;;;;4892664;29;20030;-82
2022/05/09 00:49:46;;;;;;;11.52;7.35;;;358.50;2329.60;;;;;;4866291;29;19912;-81
2022/05/09 00:52:36;;;;;;;13.27;6.97;;;358.60;2329.60;;;;;;4863235;29;20048;-81
2022/05/09 00:55:26;;;;;;;13.90;7.10;;;358.70;2329.60;;;;;;4882322;29;20033;-81
2022/05/09 00:58:02;;;;;;;10.25;6.85;;;358.50;2329.60;;;;;;4881303;29;20040;-80
2022/05/09 01:00:28;;;;;;;13.80;7.18;;;358.50;2329.60;;;;;;4881885;29;20063;-82
2022/05/09 01:03:04;;;;;;;15.23;7.35;;;358.50;2329.60;;;;;;4882600;29;20060;-83
2022/05/09 01:05:31;;;;;;;18.52;8.10;;;358.50;2329.60;;;;;;4881316;29;20025;-82
2022/05/09 01:07:58;;;;;;;19.83;8.32;;;358.60;2329.60;;;;;;4898005;29;20057;-83
2022/05/09 01:10:32;;;;;;;12.88;7.65;;;358.60;2329.60;;;;;;4897084;29;20036;-82
2022/05/09 01:13:09;;;;;;;14.43;7.85;;;358.40;2329.60;;;;;;4881589;29;20143;-81
2022/05/09 01:15:36;;;;;;;15.75;7.63;;;358.50;2329.60;;;;;;4882169;29;20047;-82
2022/05/09 01:18:06;;;;;;;20.92;8.65;;;333.70;2329.60;;;;;;4897631;29;20028;-81
2022/05/09 01:20:33;;;;;;;15.85;8.48;;;333.60;2329.60;;;;;;4896759;29;20551;-83
2022/05/09 01:23:00;;;;;;;19.60;8.30;;;333.70;2329.60;;;;;;4897298;29;20422;-83
2022/05/09 01:25:32;;;;;;;16.52;9.07;;;358.40;2329.60;;;;;;4898056;29;20032;-84
2022/05/09 01:27:59;;;;;;;20.33;9.38;;;358.40;2329.60;;;;;;4898336;29;20067;-82
2022/05/09 01:31:02;;;;;;;19.02;9.10;;;333.70;2329.60;;;;;;4896710;29;20490;-81
2022/05/09 01:34:37;;;;;;;17.40;8.13;;;333.60;2329.60;;;;;;4896985;29;20127;-83
2022/05/09 01:40:24;;;;;;;12.45;7.38;;;333.50;2329.60;;;;;;4898209;29;20052;-81
2022/05/09 01:49:29;;;;;;;13.98;7.25;;;333.20;2329.60;;;;;;4885951;29;20032;-80
2022/05/09 01:51:48;;;;;;;14.65;7.78;;;333.00;2329.60;;;;;;4883977;29;20039;-83
2022/05/09 01:54:40;;;;;;;16.67;8.57;;;333.00;2329.60;;;;;;4896757;29;20032;-82
2022/05/09 01:57:10;;;;;;;17.65;8.23;;;332.80;2329.60;;;;;;4881593;29;20035;-84
2022/05/09 01:59:38;;;;;;;15.93;7.30;;;333.00;2329.60;;;;;;4881574;29;20041;-82
2022/05/09 02:03:04;;;;;;;13.82;7.25;;;333.00;2329.60;;;;;;4896827;29;20032;-84
2022/05/09 02:05:14;;;;;;;13.23;7.68;;;333.10;2329.60;;;;;;4880687;29;20415;-80
2022/05/09 02:07:45;;;;;;;13.65;7.28;;;332.90;2329.60;;;;;;4896670;29;20530;-81
2022/05/09 02:10:20;;;;;;;12.10;6.25;;;332.90;2329.60;;;;;;4881467;29;20056;-81
2022/05/09 02:13:29;;;;;;;16.50;7.30;;;332.80;2329.60;;;;;;4895884;29;20128;-81
2022/05/09 02:17:11;;;;;;;;;;;;;;;;;;;;;
2022/05/09 02:27:00;;;;;;;15.00;7.00;;;307.80;2304.00;;;;;;4803786;29;20106;-82
2022/05/09 02:29:26;;;;;;;15.93;7.25;;;307.70;2304.00;;;;;;4788710;29;20039;-81
2022/05/09 02:31:52;;;;;;;14.93;7.60;;;308.10;2304.00;;;;;;4842801;29;20037;-81
2022/05/09 02:34:19;;;;;;;13.05;7.70;;;308.00;2304.00;;;;;;4893423;29;20406;-81
2022/05/09 02:36:48;;;;;;;19.23;8.05;;;332.80;2329.60;;;;;;4895773;29;20508;-82
2022/05/09 02:39:33;;;;;;;12.07;7.07;;;308.00;2304.00;;;;;;4896686;29;20039;-83
2022/05/09 02:42:00;;;;;;;16.38;7.10;;;308.10;2304.00;;;;;;4896242;29;20088;-84
2022/05/09 02:44:28;;;;;;;15.63;7.35;;;308.10;2304.00;;;;;;4896460;29;20076;-82
2022/05/09 02:46:54;;;;;;;11.57;7.65;;;308.00;2304.00;;;;;;4895918;29;20056;-81
2022/05/09 02:49:20;;;;;;;15.15;8.38;;;308.10;2304.00;;;;;;4896309;29;20433;-81
2022/05/09 02:51:52;;;;;;;25.63;7.97;;;307.80;2304.00;;;;;;4896301;29;20033;-82
2022/05/09 02:55:23;;;;;;;14.77;7.18;;;307.60;2304.00;;;;;;4880748;29;20096;-81
2022/05/09 03:12:08;;;;;;;18.10;8.68;;;307.50;2304.00;;;;;;4824490;29;20596;-80
2022/05/09 03:28:10;;;;;;;15.23;7.03;;;307.60;2304.00;;;;;;4869105;29;20145;-81
2022/05/09 03:30:51;;;;;;;;;;;307.80;2304.00;;;;;;4849708;29;20049;-79
2022/05/09 03:33:59;;;;;;;11.73;6.95;;;307.60;2304.00;;;;;;4863814;29;19914;-78
2022/05/09 03:36:45;;;;;;;16.65;7.75;;;307.40;2304.00;;;;;;4897652;29;20071;-80
2022/05/09 03:40:18;;;;;;;24.35;8.32;;;282.10;2278.40;;;;;;4917834;29;20050;-80
2022/05/09 03:44:06;;;;;;;;;;;;;;;;;;;;;
2022/05/09 03:47:30;;;;;;;19.17;7.53;;;307.30;2304.00;;;;;;4840931;29;20057;-81
2022/05/09 03:50:46;;;;;;;18.42;8.57;;;307.20;2304.00;;;;;;4841199;29;20042;-79
2022/05/09 03:54:17;;;;;;;16.55;8.02;;;282.50;2278.40;;;;;;4877450;29;20103;-80
2022/05/09 04:01:14;;;;;;;11.93;7.33;;;307.20;2304.00;;;;;;4840863;29;20033;-79
2022/05/09 04:03:46;;;;;;;14.52;7.07;;;307.30;2304.00;;;;;;4840886;29;20492;-78
2022/05/09 04:06:46;;;;;;;15.18;7.20;;;307.50;2304.00;;;;;;4840391;29;20408;-79
2022/05/09 04:09:25;;;;;;;15.18;7.20;;;307.40;2304.00;;;;;;4845978;29;20064;-81
2022/05/09 04:12:53;;;;;;;12.15;6.82;;;307.50;2304.00;;;;;;4859674;29;20042;-82
2022/05/09 04:19:01;;;;;;;15.13;7.40;;;307.50;2304.00;;;;;;4859352;29;20041;-81
2022/05/09 04:22:13;;;;;;;12.60;7.38;;;307.60;2304.00;;;;;;4831475;29;20060;-81
2022/05/09 04:25:22;;;;;;;14.95;7.57;;;307.40;2304.00;;;;;;4859619;29;20417;-82
2022/05/09 04:28:25;;;;;;;18.40;7.60;;;307.40;2304.00;;;;;;4784890;29;20041;-80
2022/05/09 04:31:39;;;;;;;15.60;6.60;;;307.50;2304.00;;;;;;4805058;29;20153;-80
2022/05/09 04:34:44;;;;;;;12.57;6.83;;;307.50;2304.00;;;;;;4763343;29;20039;-79
2022/05/09 04:37:55;;;;;;;15.40;7.68;;;307.30;2304.00;;;;;;4815346;29;20090;-81
2022/05/09 04:44:58;;;;;;;14.65;7.60;;;307.30;2304.00;;;;;;4804881;29;20045;-82
2022/05/09 04:48:22;;;;;;;15.52;8.73;;;307.20;2304.00;;;;;;4733766;30;20436;-84
2022/05/09 04:51:51;;;;;;;14.97;8.23;;;307.20;2304.00;;;;;;4750881;30;20075;-78
2022/05/09 04:54:55;;;;;;;12.57;8.15;;;307.30;2304.00;;;;;;4744316;30;20052;-79
2022/05/09 04:58:25;;;;;;;16.60;7.93;;;307.30;2304.00;;;;;;4758146;29;20056;-76
2022/05/09 05:01:31;;;;;;;16.67;7.90;;;307.40;2304.00;;;;;;4745402;30;20397;-79
2022/05/09 05:04:40;;;;;;;14.07;7.07;;;307.50;2304.00;;;;;;4731803;30;20037;-78
2022/05/09 05:07:16;;;;;;;17.52;8.50;;;307.60;2304.00;;;;;;4733164;30;20041;-79
2022/05/09 05:10:27;;;;;;;16.48;7.47;;;307.60;2304.00;;;;;;4738492;30;20123;-80
2022/05/09 05:13:36;;;;;;;;;;;;;;;;;;;;;
2022/05/09 05:24:26;;;;;;;11.10;6.65;;;307.90;2304.00;;;;;;4803252;29;20042;-81
2022/05/09 05:27:27;;;;;;;;;;;;;;;;;;;;;
2022/05/09 05:31:01;;;;;;;;;;;;;;;;;;;;;
2022/05/09 05:34:13;;;;;;;14.20;6.43;;;308.10;2304.00;;;;;;4755359;30;20062;-80
2022/05/09 05:37:02;;;;;;;12.55;7.28;;;308.10;2304.00;;;;;;4750652;30;20460;-81
2022/05/09 05:42:49;;;;;;;13.30;6.60;;;332.80;2329.60;;;;;;4804002;29;20134;-81
2022/05/09 05:45:22;;;;;;;15.07;7.20;;;333.00;2329.60;;;;;;4803915;29;20038;-83
2022/05/09 05:48:02;;;;;;;10.65;6.22;;;333.00;2329.60;;;;;;4859006;29;20055;-81
2022/05/09 05:50:28;;;;;;;13.65;8.10;;;333.20;2329.60;;;;;;4857985;29;20072;-82
2022/05/09 05:53:00;;;;;;;16.27;7.80;;;333.20;2329.60;;;;;;4858782;29;20072;-80
2022/05/09 05:55:29;;;;;;;9.37;6.27;;;333.30;2329.60;;;;;;4859063;29;20033;-83
2022/05/09 05:58:01;;;;;;;11.43;6.47;;;333.40;2329.60;;;;;;4858248;29;20076;-83
2022/05/09 06:00:27;;;;;;;12.57;6.70;;;333.40;2329.60;;;;;;4858583;29;20085;-80
2022/05/09 06:02:56;;;;;;;13.05;6.78;;;333.50;2329.60;;;;;;4858191;29;20504;-80
2022/05/09 06:05:22;;;;;;;12.60;6.47;;;333.60;2329.60;;;;;;4858647;29;20030;-81
2022/05/09 06:08:00;;;;;;;13.43;6.65;;;333.70;2329.60;;;;;;4879500;29;20083;-80
2022/05/09 06:10:26;;;;;;;13.65;7.80;;;358.40;2329.60;;;;;;4881312;29;20040;-82
2022/05/09 06:12:53;;;;;;;16.00;7.45;;;358.60;2329.60;;;;;;4880445;29;20025;-82
2022/05/09 06:15:25;;;;;;;13.45;6.95;;;358.60;2329.60;;;;;;4881250;29;20057;-80
2022/05/09 06:17:52;;;;;;;15.70;6.53;;;358.70;2329.60;;;;;;4881636;29;20406;-83
2022/05/09 06:20:19;;;;;;;12.60;7.25;;;358.80;2329.60;;;;;;4896436;29;20043;-81
2022/05/09 06:22:48;;;;;;;13.18;7.90;;;359.00;2329.60;;;;;;4880742;29;20044;-84
2022/05/09 06:25:17;;;;;;;14.90;8.48;;;359.10;2329.60;;;;;;4896898;29;20029;-83
2022/05/09 06:27:43;;;;;;;15.75;7.22;;;359.30;2329.60;;;;;;4890409;29;20109;-82
2022/05/09 06:30:17;;;;;;;16.15;7.43;;;384.00;2329.60;;;;;;4864638;29;20439;-83
2022/05/09 06:32:43;;;;;;;29.30;8.60;;;384.10;2329.60;;;;;;4881539;29;20029;-81
2022/05/09 06:35:20;;;;;;;14.65;7.05;;;384.30;2329.60;;;;;;4895594;29;20028;-81
2022/05/09 06:37:49;;;;;;;14.27;7.20;;;384.50;2329.60;;;;;;4901058;29;20033;-80
2022/05/09 06:40:18;;;;;;;13.95;6.93;;;384.70;2329.60;;;;;;4883592;29;20029;-82
2022/05/09 06:42:44;;;;;;;17.45;7.55;;;409.80;2355.20;;;;;;4897191;29;20511;-81
2022/05/09 06:45:10;;;;;;;15.38;7.03;;;409.60;2355.20;;;;;;4865659;29;20484;-82
2022/05/09 06:47:44;;;;;;;9.95;6.85;;;409.70;2355.20;;;;;;4865838;29;20096;-81
2022/05/09 06:50:11;;;;;;;13.93;6.78;;;409.80;2355.20;;;;;;4865530;29;20033;-81
2022/05/09 06:52:37;;;;;;;11.60;6.30;;;410.00;2355.20;;;;;;4865837;29;20032;-81
2022/05/09 06:55:04;;;;;;;11.15;6.00;;;410.10;2355.20;;;;;;4865315;29;20052;-80
2022/05/09 06:57:30;;;;;;;13.63;5.82;;;410.20;2355.20;;;;;;4865752;29;20170;-80
2022/05/09 06:59:55;;;;;;;14.00;6.22;;;410.30;2355.20;;;;;;4868781;29;20465;-80
2022/05/09 07:02:21;;;;;;;12.93;6.15;;;435.20;2355.20;;;;;;4899932;29;20040;-81
2022/05/09 07:04:47;;;;;;;12.25;5.70;;;435.30;2355.20;;;;;;4899462;29;20031;-81
2022/05/09 07:07:13;;;;;;;9.07;5.75;;;435.50;2355.20;;;;;;4884251;29;20119;-82
2022/05/09 07:09:39;;;;;;;11.43;6.65;;;435.60;2329.60;;;;;;4883441;29;20032;-84
2022/05/09 07:12:06;;;;;;;12.63;5.80;;;435.70;2278.40;;;;;;4899491;29;20037;-81
2022/05/09 07:14:34;;;;;;;11.73;5.43;;;435.90;2201.60;;;;;;4908138;29;20051;-83
2022/05/09 07:17:00;;;;;;;11.90;5.18;;;436.00;2176.00;;;;;;4902373;29;20463;-82
2022/05/09 07:19:25;;;;;;;9.52;4.70;;;436.10;2150.40;;;;;;4902550;29;20032;-80
2022/05/09 07:21:51;;;;;;;10.85;5.07;;;460.80;2124.80;;;;;;4902224;29;20504;-81
2022/05/09 07:24:17;;;;;;;7.20;4.63;;;461.00;2073.60;;;;;;4902718;29;20080;-83
2022/05/09 07:26:43;;;;;;;7.85;4.72;;;461.20;2073.60;;;;;;4919137;29;20032;-82
2022/05/09 07:29:09;;;;;;;9.00;5.05;;;461.40;2073.60;;;;;;4918347;29;20032;-80
2022/05/09 07:31:35;;;;;;;10.00;4.55;;;461.50;2048.00;;;;;;4901852;29;20122;-82
2022/05/09 07:34:01;;;;;;;8.15;4.53;;;461.60;2048.00;;;;;;4918490;29;20459;-80
2022/05/09 07:36:27;;;;;;;10.60;6.32;;;486.40;2048.00;;;;;;4902031;29;20028;-79
2022/05/09 07:38:52;;;;;;;9.32;4.63;;;486.50;2022.40;;;;;;4902347;29;20028;-82
2022/05/09 07:41:19;;;;;;;12.88;5.18;;;486.70;2022.40;;;;;;4902746;29;20032;-81
2022/05/09 07:43:44;;;;;;;7.05;4.22;;;486.80;1996.80;;;;;;4910478;29;20497;-79
2022/05/09 07:46:10;;;;;;;7.57;4.97;;;486.90;1971.20;;;;;;4931006;29;20028;-80
2022/05/09 07:48:38;;;;;;;10.93;6.40;;;487.10;1971.20;;;;;;4917842;29;20036;-80
2022/05/09 07:51:04;;;;;;;12.52;6.05;;;487.30;1945.60;;;;;;4918548;29;20063;-80
2022/05/09 07:53:33;;;;;;;8.82;5.07;;;512.10;1945.60;;;;;;4918277;29;20058;-82
2022/05/09 07:56:04;;;;;;;9.57;5.28;;;512.20;1920.00;;;;;;4918555;29;20056;-85
2022/05/09 07:58:31;;;;;;;9.40;5.68;;;512.50;1920.00;;;;;;4919583;29;20032;-85
2022/05/09 08:01:02;;;;;;;9.65;5.05;;;512.60;1894.40;;;;;;4918422;29;20035;-81
2022/05/09 08:03:30;;;;;;;10.10;4.82;;;512.90;1868.80;;;;;;4919509;29;20047;-81
2022/05/09 08:05:58;;;;;;;8.52;4.50;;;537.80;1894.40;;;;;;4918227;29;20371;-83
2022/05/09 08:08:25;;;;;;;7.32;4.15;;;537.70;1894.40;;;;;;4918093;29;20035;-80
2022/05/09 08:10:50;;;;;;;9.82;4.97;;;537.90;1868.80;;;;;;4917681;29;20390;-81
2022/05/09 08:13:18;;;;;;;9.07;3.92;;;538.00;1843.20;;;;;;4901995;29;20027;-81
2022/05/09 08:15:46;;;;;;;7.97;4.47;;;538.20;1817.60;;;;;;4927182;29;20513;-82
2022/05/09 08:18:13;;;;;;;17.63;4.00;;;538.30;1792.00;;;;;;4920620;29;20035;-80
2022/05/09 08:20:42;;;;;;;9.95;4.05;;;538.40;1792.00;;;;;;4906903;29;20035;-79
2022/05/09 08:23:11;;;;;;;7.07;3.95;;;538.30;1817.60;;;;;;4917413;29;20028;-80
2022/05/09 08:25:41;;;;;;;6.57;3.63;;;538.20;1792.00;;;;;;4917208;29;20024;-80
2022/05/09 08:28:07;;;;;;;9.18;4.35;;;538.50;1740.80;;;;;;4917458;29;20061;-79
2022/05/09 08:30:34;;;;;;;7.53;4.18;;;563.20;1740.80;;;;;;4917255;29;20036;-85
2022/05/09 08:33:15;;;;;;;7.05;3.50;;;563.50;1740.80;;;;;;4917289;29;20031;-81
2022/05/09 08:35:43;;;;;;;6.90;4.18;;;563.70;1689.60;;;;;;4917440;29;20076;-83
2022/05/09 08:38:09;;;;;;;5.65;3.20;;;563.90;1689.60;;;;;;4917438;29;20028;-79
2022/05/09 08:40:57;;;;;;;5.97;3.47;;;564.10;1664.00;;;;;;4901731;29;20028;-83
2022/05/09 08:43:40;;;;;;;8.00;3.47;;;588.90;1664.00;;;;;;4916386;29;20482;-81
2022/05/09 08:46:35;;;;;;;7.78;2.95;;;563.90;1664.00;;;;;;4924070;29;20495;-79
2022/05/09 08:49:26;;;;;;;8.15;3.97;;;563.90;1664.00;;;;;;4929629;29;20035;-75
2022/05/09 08:52:21;;;;;;;6.95;3.67;;;588.80;1664.00;;;;;;4917525;29;20043;-76
2022/05/09 08:54:48;;;;;;;8.73;4.38;;;589.10;1638.40;;;;;;4917339;29;20047;-77
2022/05/09 08:57:20;;;;;;;8.15;3.33;;;589.40;1612.80;;;;;;4916932;29;20028;-76
2022/05/09 09:00:11;;;;;;;5.37;2.50;;;589.60;1561.60;;;;;;4916871;29;20071;-76
2022/05/09 09:02:54;;;;;;;6.80;3.20;;;589.60;1561.60;;;;;;4918023;29;20111;-77
2022/05/09 09:05:23;;;;;;;6.60;2.65;;;614.40;1561.60;;;;;;4917019;29;20092;-77
2022/05/09 09:08:11;;;;;;;7.18;3.60;;;589.70;1536.00;;;;;;4915300;29;20028;-77
2022/05/09 09:10:52;;;;;;;3.83;2.70;;;614.60;1561.60;;;;;;4917331;29;20040;-77
2022/05/09 09:13:53;;;;;;;7.70;3.28;;;614.60;1484.80;;;;;;4917361;29;20390;-76
2022/05/09 09:16:28;;;;;;;7.78;3.25;;;614.60;1510.40;;;;;;4917400;29;20391;-77
2022/05/09 09:19:21;;;;;;;8.73;3.20;;;589.70;1536.00;;;;;;4900510;29;20522;-75
2022/05/09 09:21:58;;;;;;;;;;;614.80;1536.00;;;;;;4900787;29;20028;-79
2022/05/09 09:24:33;;;;;;;8.10;3.33;;;614.90;1484.80;;;;;;4917832;29;19962;-77
2022/05/09 09:27:08;;;;;;;6.30;2.83;;;614.90;1484.80;;;;;;4917972;29;20482;-77
2022/05/09 09:29:50;;;;;;;9.98;3.97;;;615.00;1510.40;;;;;;4917110;29;20541;-77
2022/05/09 09:32:19;;;;;;;5.40;2.85;;;615.30;1484.80;;;;;;4916494;29;20039;-79
2022/05/09 09:35:06;;;;;;;5.70;3.10;;;640.00;1484.80;;;;;;4916445;29;20095;-77
2022/05/09 09:37:32;;;;;;;7.50;3.78;;;640.20;1459.20;;;;;;4917427;29;20050;-77
2022/05/09 09:39:58;;;;;;;8.55;3.53;;;640.50;1408.00;;;;;;4917605;29;20043;-75
2022/05/09 09:42:24;;;;;;;7.65;3.53;;;640.70;1356.80;;;;;;4900402;29;20088;-76
2022/05/09 09:44:53;;;;;;;6.28;3.30;;;665.60;1408.00;;;;;;4900540;29;20028;-75
2022/05/09 09:47:18;;;;;;;5.85;3.00;;;665.90;1382.40;;;;;;4916271;29;20359;-79
2022/05/09 09:49:47;;;;;;;7.13;2.58;;;666.10;1382.40;;;;;;4900147;29;20039;-76
2022/05/09 09:52:41;;;;;;;9.07;3.40;;;666.00;1356.80;;;;;;4917141;29;20474;-78
2022/05/09 09:55:22;;;;;;;9.50;7.00;;;666.00;1382.40;;;;;;4916156;29;20039;-76
2022/05/09 09:57:48;;;;;;;6.95;3.95;;;666.30;1382.40;;;;;;4917212;29;20474;-75
2022/05/09 10:00:21;;;;;;;6.13;3.35;;;691.20;1382.40;;;;;;4917454;29;20111;-76
2022/05/09 10:02:48;;;;;;;7.80;2.83;;;666.50;1356.80;;;;;;4917303;29;20032;-76
2022/05/09 10:05:17;;;;;;;6.90;3.50;;;691.20;1356.80;;;;;;4917013;29;20039;-77
2022/05/09 10:07:44;;;;;;;5.88;3.65;;;691.70;1331.20;;;;;;4916018;29;20035;-76
2022/05/09 10:10:11;;;;;;;5.25;2.45;;;691.80;1331.20;;;;;;4899587;29;20039;-76
2022/05/09 10:12:48;;;;;;;5.72;2.97;;;691.70;1331.20;;;;;;4920217;29;20040;-76
2022/05/09 10:15:31;;;;;;;6.20;2.65;;;691.80;1331.20;;;;;;4921131;29;20054;-77
2022/05/09 10:17:58;;;;;;;8.13;4.03;;;692.10;1305.60;;;;;;4919664;29;20028;-77
2022/05/09 10:20:38;;;;;;;7.40;3.13;;;716.90;1356.80;;;;;;4919797;29;20474;-76
2022/05/09 10:26:02;;;;;;;6.28;2.80;;;717.40;1331.20;;;;;;4922914;29;20039;-75
2022/05/09 10:28:31;;;;;;;5.43;2.85;;;717.30;1331.20;;;;;;4921471;29;20035;-76
2022/05/09 10:31:13;;;;;;;6.90;2.70;;;717.30;1305.60;;;;;;4922078;29;20478;-77
2022/05/09 10:33:44;;;;;;;;;;;717.40;1280.00;;;;;;4920987;29;20084;-76
2022/05/09 10:36:39;;;;;;;6.13;3.35;;;717.50;1254.40;;;;;;4919256;29;19959;-77
2022/05/09 10:39:25;;;;;;;5.82;3.25;;;742.40;1254.40;;;;;;4919318;29;20040;-77
2022/05/09 10:41:55;;;;;;;4.82;2.00;;;742.40;1228.80;;;;;;4920834;29;20020;-76
2022/05/09 10:44:43;;;;;;;7.25;2.85;;;717.50;1177.60;;;;;;4920728;29;20463;-76
2022/05/09 10:47:48;;;;;;;5.80;3.17;;;742.50;1228.80;;;;;;4919979;29;20031;-78
2022/05/09 10:50:29;;;;;;;8.82;2.65;;;742.80;1203.20;;;;;;4900352;29;20036;-77
2022/05/09 10:53:14;;;;;;;5.50;2.25;;;742.80;1203.20;;;;;;4920261;29;20065;-76
2022/05/09 10:56:05;;;;;;;6.00;2.80;;;742.90;1177.60;;;;;;4920459;29;20395;-77
2022/05/09 10:58:46;;;;;;;7.57;2.67;;;742.90;1203.20;;;;;;4920492;29;20034;-76
2022/05/09 11:01:18;;;;;;;8.77;2.50;;;743.10;1203.20;;;;;;4918855;29;20024;-76
2022/05/09 11:03:45;;;;;;;4.88;2.08;;;743.30;1177.60;;;;;;4919111;29;20383;-78
2022/05/09 11:06:29;;;;;;;5.38;2.75;;;742.90;1177.60;;;;;;4918678;29;20044;-76
2022/05/09 11:08:57;;;;;;;6.20;3.38;;;742.80;1177.60;;;;;;4919043;29;20371;-76
2022/05/09 11:11:45;;;;;;;5.15;2.30;;;743.20;1177.60;;;;;;4920193;29;20036;-77
2022/05/09 11:14:49;;;;;;;5.20;3.00;;;768.10;1177.60;;;;;;4918397;29;20380;-76
2022/05/09 11:17:52;;;;;;;6.45;2.25;;;768.40;1177.60;;;;;;4843090;29;20034;-75
2022/05/09 11:20:20;;;;;;;5.50;2.55;;;768.40;1152.00;;;;;;4842805;29;20528;-76
2022/05/09 11:22:46;;;;;;;5.30;2.17;;;768.10;1152.00;;;;;;4897434;29;20421;-78
2022/05/09 11:25:29;;;;;;;4.68;2.05;;;768.50;1152.00;;;;;;4918473;29;20032;-75
2022/05/09 11:28:04;;;;;;;7.80;2.40;;;768.80;1126.40;;;;;;4918139;29;20028;-77
2022/05/09 11:30:55;;;;;;;4.88;2.40;;;793.60;1152.00;;;;;;4919548;29;20032;-77
2022/05/09 11:33:46;;;;;;;4.68;2.25;;;768.90;1126.40;;;;;;4902639;29;20028;-77
2022/05/09 11:36:49;;;;;;;8.30;2.47;;;768.80;1126.40;;;;;;4918258;29;20044;-76
2022/05/09 11:39:23;;;;;;;6.18;2.20;;;793.60;1152.00;;;;;;4918438;29;20032;-77
2022/05/09 11:45:10;;;;;;;4.70;2.08;;;768.90;1100.80;;;;;;4920639;29;20035;-74
2022/05/09 11:48:15;;;;;;;6.68;2.50;;;794.00;1100.80;;;;;;4922840;29;20027;-78
2022/05/09 11:51:01;;;;;;;3.78;2.17;;;794.10;1100.80;;;;;;4876937;29;20044;-78
2022/05/09 11:53:31;;;;;;;5.53;2.50;;;794.20;1100.80;;;;;;4921350;29;20046;-76
2022/05/09 11:55:57;;;;;;;3.15;1.70;;;794.30;1100.80;;;;;;4920997;29;20024;-76
2022/05/09 11:58:25;;;;;;;4.07;1.83;;;794.40;1100.80;;;;;;4922560;29;20060;-76
2022/05/09 12:00:52;;;;;;;7.22;2.10;;;794.40;1100.80;;;;;;4922959;29;20036;-77
2022/05/09 12:03:40;;;;;;;5.10;3.05;;;819.30;1075.20;;;;;;4921806;29;20116;-77
2022/05/09 12:06:12;;;;;;;4.25;2.13;;;794.30;1049.60;;;;;;4920249;29;20435;-77
2022/05/09 12:08:48;;;;;;;3.75;1.90;;;794.40;1100.80;;;;;;4902260;29;20039;-77
2022/05/09 12:11:23;;;;;;;9.65;2.80;;;794.20;1075.20;;;;;;4901869;29;20036;-75
2022/05/09 12:13:54;;;;;;;4.75;1.95;;;794.40;1100.80;;;;;;4917239;29;20035;-77
2022/05/09 12:16:35;;;;;;;5.45;1.88;;;794.40;1100.80;;;;;;4918115;29;20432;-75
2022/05/09 12:19:04;;;;;;;4.13;2.22;;;819.20;1100.80;;;;;;4918992;29;20036;-77
2022/05/09 12:21:37;;;;;;;3.47;1.85;;;819.30;1075.20;;;;;;4918324;29;20390;-75
2022/05/09 12:24:14;;;;;;;3.85;2.05;;;819.50;1075.20;;;;;;4918888;29;20038;-76
2022/05/09 12:26:43;;;;;;;4.15;2.10;;;819.50;1100.80;;;;;;4917536;29;20032;-77
2022/05/09 12:29:11;;;;;;;4.72;2.05;;;819.50;1075.20;;;;;;4918738;29;20040;-75
2022/05/09 12:31:56;;;;;;;7.97;1.88;;;819.50;1075.20;;;;;;4918801;29;20039;-74
2022/05/09 12:34:30;;;;;;;4.60;2.20;;;819.60;1075.20;;;;;;4916764;29;20034;-77
2022/05/09 12:36:56;;;;;;;7.20;2.28;;;819.80;1100.80;;;;;;4901752;29;20071;-78
2022/05/09 12:39:30;;;;;;;7.60;1.98;;;819.70;1075.20;;;;;;4901551;29;20063;-77
2022/05/09 12:41:59;;;;;;;3.80;2.00;;;819.70;1075.20;;;;;;4917055;29;20032;-77
2022/05/09 12:44:34;;;;;;;6.28;2.38;;;819.70;1049.60;;;;;;4917256;29;20035;-77
2022/05/09 12:47:04;;;;;;;7.20;2.45;;;819.80;1049.60;;;;;;4918454;29;20352;-78
2022/05/09 12:49:41;;;;;;;3.40;1.73;;;819.50;1075.20;;;;;;4916502;29;20043;-77
2022/05/09 12:52:10;;;;;;;5.35;2.42;;;819.50;1075.20;;;;;;4901466;29;20036;-77
2022/05/09 12:54:39;;;;;;;5.00;2.15;;;819.60;1075.20;;;;;;4917137;29;20118;-77
2022/05/09 12:57:07;;;;;;;7.28;2.05;;;819.70;1100.80;;;;;;4900934;29;20028;-77
2022/05/09 12:59:50;;;;;;;5.78;1.90;;;819.60;1075.20;;;;;;4901255;29;20036;-79
2022/05/09 13:02:25;;;;;;;5.65;2.42;;;819.80;1100.80;;;;;;4916924;29;20040;-77
2022/05/09 13:04:52;;;;;;;6.35;2.47;;;819.80;1100.80;;;;;;4918492;29;20057;-77
2022/05/09 13:07:19;;;;;;;9.02;2.40;;;820.10;1100.80;;;;;;4918448;29;20386;-76
2022/05/09 13:09:50;;;;;;;5.07;2.40;;;820.10;1075.20;;;;;;4920463;29;20039;-75
2022/05/09 13:12:19;;;;;;;9.30;2.50;;;844.80;1100.80;;;;;;4921043;29;20043;-77
2022/05/09 13:14:56;;;;;;;9.57;2.90;;;819.90;1075.20;;;;;;4918022;29;20059;-75
2022/05/09 13:17:38;;;;;;;9.10;2.53;;;820.10;1075.20;;;;;;4900691;29;20121;-76
2022/05/09 13:20:09;;;;;;;6.78;2.17;;;820.10;1075.20;;;;;;4917921;29;20458;-77
2022/05/09 13:22:46;;;;;;;4.17;2.23;;;844.90;1100.80;;;;;;4917996;29;20024;-77
2022/05/09 13:25:36;;;;;;;4.28;1.98;;;845.00;1100.80;;;;;;4918119;29;20422;-75
2022/05/09 13:28:09;;;;;;;3.33;1.95;;;844.90;1100.80;;;;;;4916730;29;20059;-75
2022/05/09 13:30:44;;;;;;;4.05;1.85;;;844.90;1100.80;;;;;;4916171;29;20059;-77
2022/05/09 13:33:17;;;;;;;5.45;2.05;;;844.90;1100.80;;;;;;4916550;29;20039;-77
2022/05/09 13:35:49;;;;;;;5.05;2.28;;;845.00;1100.80;;;;;;4916571;29;20028;-76
2022/05/09 13:38:40;;;;;;;;;;;844.90;1100.80;;;;;;4917716;29;20103;-76
2022/05/09 13:41:11;;;;;;;7.15;2.95;;;845.00;1100.80;;;;;;4915302;29;19907;-78
2022/05/09 13:43:46;;;;;;;6.28;1.90;;;845.00;1100.80;;;;;;4917668;29;20032;-77
2022/05/09 13:46:18;;;;;;;4.65;2.22;;;844.90;1075.20;;;;;;4915642;29;20084;-76
2022/05/09 13:48:49;;;;;;;3.80;1.70;;;819.80;1049.60;;;;;;4917142;29;20035;-76
2022/05/09 13:51:21;;;;;;;6.85;2.30;;;819.60;1075.20;;;;;;4916009;29;20131;-78
2022/05/09 13:53:49;;;;;;;6.45;2.53;;;819.60;1100.80;;;;;;4917647;29;20039;-75
2022/05/09 13:56:16;;;;;;;5.15;2.35;;;819.70;1075.20;;;;;;4900228;29;20061;-77
2022/05/09 13:58:44;;;;;;;9.73;4.50;;;819.90;1075.20;;;;;;4892464;29;20509;-77
2022/05/09 14:01:12;;;;;;;4.30;2.30;;;820.10;1075.20;;;;;;4908734;29;20028;-75
2022/05/09 14:03:48;;;;;;;6.68;1.77;;;819.90;1049.60;;;;;;4897498;29;20025;-76
2022/05/09 14:06:20;;;;;;;4.43;2.17;;;819.30;1075.20;;;;;;4880409;29;20036;-76
2022/05/09 14:08:49;;;;;;;5.10;3.10;;;819.40;1126.40;;;;;;4881469;29;20040;-75
2022/05/09 14:11:27;;;;;;;7.30;3.03;;;819.60;1100.80;;;;;;4881310;29;20052;-75
2022/05/09 14:13:53;;;;;;;6.22;2.80;;;819.70;1075.20;;;;;;4898136;29;20033;-78
2022/05/09 14:16:25;;;;;;;7.25;3.67;;;819.80;1075.20;;;;;;4898434;29;20048;-77
2022/05/09 14:19:01;;;;;;;4.55;3.25;;;820.00;1075.20;;;;;;4898012;29;20028;-80
2022/05/09 14:21:34;;;;;;;4.78;2.85;;;820.00;1075.20;;;;;;4881691;29;20037;-78
2022/05/09 14:24:01;;;;;;;4.97;3.10;;;819.90;1075.20;;;;;;4881453;29;20053;-78
2022/05/09 14:29:37;;;;;;;3.83;1.95;;;819.70;1075.20;;;;;;4898232;29;20040;-77
2022/05/09 14:32:06;;;;;;;6.13;2.40;;;794.50;1049.60;;;;;;4898280;29;20028;-78